createdAt,value
2023-02-08T00:02:28.016Z,25.23
2023-02-08T00:04:58.006Z,24.85
2023-02-08T00:07:28.669Z,25.35
2023-02-08T00:09:58.760Z,25.47
2023-02-08T00:12:31.433Z,25.69
2023-02-08T00:15:01.349Z,25.55
2023-02-08T00:17:31.650Z,25.20
2023-02-08T00:20:01.629Z,25.17
2023-02-08T00:22:31.606Z,26.05
2023-02-08T00:25:01.598Z,25.86
2023-02-08T00:27:34.427Z,25.80
2023-02-08T00:30:04.370Z,25.42
2023-02-08T00:32:34.608Z,26.43
2023-02-08T00:35:04.589Z,26.26
2023-02-08T00:37:34.884Z,25.77
2023-02-08T00:40:06.032Z,26.15
2023-02-08T00:42:38.650Z,27.26
2023-02-08T00:45:09.099Z,27.11
2023-02-08T00:47:39.131Z,25.88
2023-02-08T00:50:10.287Z,25.76
2023-02-08T00:52:40.368Z,26.28
2023-02-08T00:55:11.856Z,26.61
2023-02-08T00:57:44.441Z,26.35
2023-02-08T01:00:15.876Z,26.11
2023-02-08T01:02:45.875Z,26.45
2023-02-08T01:05:15.852Z,26.20
2023-02-08T01:07:45.791Z,26.08
2023-02-08T01:10:15.797Z,26.19
2023-02-08T01:12:48.349Z,26.16
2023-02-08T01:15:18.321Z,26.14
2023-02-08T01:17:48.289Z,26.57
2023-02-08T01:20:18.541Z,26.55
2023-02-08T01:22:48.459Z,26.14
2023-02-08T01:25:18.731Z,26.24
2023-02-08T01:27:51.406Z,26.39
2023-02-08T01:30:22.368Z,27.11
2023-02-08T01:32:52.457Z,27.64
2023-02-08T01:35:22.459Z,27.39
2023-02-08T01:37:52.401Z,28.02
2023-02-08T01:40:22.861Z,27.30
2023-02-08T01:42:56.836Z,27.30
2023-02-08T01:45:30.092Z,26.89
2023-02-08T01:48:07.591Z,27.12
2023-02-08T01:50:47.646Z,26.63
2023-02-08T01:53:19.433Z,27.05
2023-02-08T01:55:54.064Z,26.84
2023-02-08T01:58:31.124Z,26.37
2023-02-08T02:01:01.520Z,26.28
2023-02-08T02:03:31.974Z,26.59
2023-02-08T02:06:08.981Z,25.71
2023-02-08T02:08:47.765Z,25.51
2023-02-08T02:11:18.320Z,25.43
2023-02-08T02:13:52.090Z,25.83
2023-02-08T02:16:22.179Z,25.95
2023-02-08T02:18:54.211Z,25.87
2023-02-08T02:21:48.841Z,26.16
2023-02-08T02:24:53.816Z,26.27
2023-02-08T02:27:45.920Z,25.71
2023-02-08T02:31:03.774Z,26.15
2023-02-08T02:34:01.359Z,26.43
2023-02-08T02:36:44.545Z,25.68
2023-02-08T02:39:26.806Z,25.78
2023-02-08T02:42:21.436Z,26.18
2023-02-08T02:45:06.457Z,26.61
2023-02-08T02:47:52.989Z,26.17
2023-02-08T02:50:34.191Z,26.74
2023-02-08T02:53:12.924Z,26.55
2023-02-08T02:55:48.213Z,25.99
2023-02-08T02:58:22.780Z,25.70
2023-02-08T03:00:56.806Z,26.18
2023-02-08T03:03:30.367Z,26.88
2023-02-08T03:06:07.467Z,26.32
2023-02-08T03:09:04.618Z,26.29
2023-02-08T03:11:39.500Z,25.97
2023-02-08T03:14:31.841Z,25.92
2023-02-08T03:17:15.233Z,26.02
2023-02-08T03:19:55.780Z,27.00
2023-02-08T03:22:39.066Z,26.37
2023-02-08T03:25:17.777Z,25.71
2023-02-08T03:27:58.592Z,25.89
2023-02-08T03:30:36.739Z,25.91
2023-02-08T03:33:17.741Z,26.53
2023-02-08T03:35:57.477Z,25.87
2023-02-08T03:38:36.696Z,26.58
2023-02-08T03:41:13.028Z,26.08
2023-02-08T03:43:48.054Z,25.87
2023-02-08T03:46:23.941Z,27.34
2023-02-08T03:49:02.172Z,26.96
2023-02-08T03:51:37.144Z,25.86
2023-02-08T03:54:14.318Z,26.24
2023-02-08T03:56:53.781Z,26.44
2023-02-08T03:59:28.176Z,26.37
2023-02-08T04:02:02.052Z,26.20
2023-02-08T04:04:36.910Z,25.44
2023-02-08T04:07:07.567Z,25.62
2023-02-08T04:09:40.075Z,26.48
2023-02-08T04:12:10.790Z,25.86
2023-02-08T04:14:40.838Z,26.52
2023-02-08T04:17:11.093Z,25.80
2023-02-08T04:19:41.204Z,26.25
2023-02-08T04:22:11.117Z,26.62
2023-02-08T04:24:43.746Z,26.18
2023-02-08T04:27:13.702Z,25.66
2023-02-08T04:29:43.743Z,26.21
2023-02-08T04:32:13.900Z,25.62
2023-02-08T04:34:44.354Z,26.64
2023-02-08T04:37:14.413Z,26.24
2023-02-08T04:39:47.016Z,27.37
2023-02-08T04:42:16.994Z,25.71
2023-02-08T04:44:47.156Z,25.60
2023-02-08T04:47:17.259Z,27.14
2023-02-08T04:49:47.273Z,26.18
2023-02-08T04:52:17.281Z,26.27
2023-02-08T04:54:49.797Z,25.55
2023-02-08T04:57:19.768Z,25.27
2023-02-08T04:59:49.695Z,26.38
2023-02-08T05:02:19.829Z,25.54
2023-02-08T05:04:49.820Z,25.93
2023-02-08T05:07:19.752Z,26.07
2023-02-08T05:09:52.289Z,26.16
2023-02-08T05:12:22.259Z,26.39
2023-02-08T05:14:52.238Z,25.71
2023-02-08T05:17:22.202Z,25.41
2023-02-08T05:19:52.122Z,25.73
2023-02-08T05:22:22.117Z,25.58
2023-02-08T05:24:55.180Z,25.94
2023-02-08T05:27:25.116Z,26.53
2023-02-08T05:29:54.998Z,26.34
2023-02-08T05:32:25.169Z,26.48
2023-02-08T05:34:55.092Z,26.57
2023-02-08T05:37:25.105Z,26.75
2023-02-08T05:39:57.711Z,26.52
2023-02-08T05:42:27.804Z,26.55
2023-02-08T05:44:57.749Z,26.93
2023-02-08T05:47:27.700Z,27.04
2023-02-08T05:49:57.599Z,26.43
2023-02-08T05:52:27.492Z,25.89
2023-02-08T05:55:00.329Z,26.72
2023-02-08T05:57:31.909Z,26.67
2023-02-08T06:00:02.679Z,26.66
2023-02-08T06:02:32.828Z,26.50
2023-02-08T06:05:03.044Z,26.75
2023-02-08T06:07:33.060Z,26.74
2023-02-08T06:10:06.054Z,26.31
2023-02-08T06:12:36.345Z,26.77
2023-02-08T06:15:06.681Z,26.50
2023-02-08T06:17:36.688Z,27.58
2023-02-08T06:20:07.411Z,27.72
2023-02-08T06:22:38.106Z,27.12
2023-02-08T06:25:11.016Z,26.36
2023-02-08T06:27:40.985Z,27.15
2023-02-08T06:30:12.143Z,27.53
2023-02-08T06:32:42.202Z,27.85
2023-02-08T06:35:12.124Z,27.36
2023-02-08T06:37:42.293Z,27.40
2023-02-08T06:40:15.067Z,27.39
2023-02-08T06:42:45.744Z,26.72
2023-02-08T06:45:15.669Z,26.63
2023-02-08T06:47:45.773Z,26.50
2023-02-08T06:50:15.723Z,26.83
2023-02-08T06:52:45.620Z,27.76
2023-02-08T06:55:18.458Z,27.31
2023-02-08T06:57:48.404Z,26.47
2023-02-08T07:00:19.039Z,27.32
2023-02-08T07:02:49.257Z,27.00
2023-02-08T07:05:19.539Z,26.80
2023-02-08T07:07:51.032Z,26.93
2023-02-08T07:10:23.669Z,27.48
2023-02-08T07:12:53.657Z,27.57
2023-02-08T07:15:23.619Z,27.36
2023-02-08T07:17:53.710Z,27.44
2023-02-08T07:20:23.894Z,27.81
2023-02-08T07:22:53.911Z,27.29
2023-02-08T07:25:26.560Z,27.78
2023-02-08T07:27:56.632Z,27.64
2023-02-08T07:30:26.750Z,27.22
2023-02-08T07:32:56.862Z,27.77
2023-02-08T07:35:27.046Z,27.17
2023-02-08T07:37:57.077Z,27.75
2023-02-08T07:40:29.630Z,27.48
2023-02-08T07:42:59.704Z,28.13
2023-02-08T07:45:41.209Z,28.02
2023-02-08T07:48:11.152Z,27.52
2023-02-08T07:50:41.278Z,28.02
2023-02-08T07:53:11.329Z,27.75
2023-02-08T07:55:43.918Z,27.60
2023-02-08T07:58:14.353Z,28.31
2023-02-08T08:00:44.343Z,27.96
2023-02-08T08:03:14.300Z,27.75
2023-02-08T08:05:44.765Z,28.63
2023-02-08T08:08:15.753Z,28.43
2023-02-08T08:10:49.619Z,27.53
2023-02-08T08:13:19.649Z,29.27
2023-02-08T08:15:50.579Z,29.18
2023-02-08T08:18:20.752Z,29.37
2023-02-08T08:20:50.934Z,29.54
2023-02-08T08:23:20.926Z,28.10
2023-02-08T08:25:53.470Z,28.75
2023-02-08T08:28:23.733Z,28.92
2023-02-08T08:30:53.817Z,28.25
2023-02-08T08:33:23.900Z,28.53
2023-02-08T08:35:53.875Z,28.43
2023-02-08T08:38:23.938Z,27.75
2023-02-08T08:40:56.551Z,27.84
2023-02-08T08:43:26.651Z,28.55
2023-02-08T08:45:56.679Z,27.74
2023-02-08T08:48:26.687Z,27.84
2023-02-08T08:50:57.049Z,28.25
2023-02-08T08:53:26.982Z,29.00
2023-02-08T08:55:59.560Z,28.36
2023-02-08T08:58:29.450Z,27.92
2023-02-08T09:01:00.621Z,27.57
2023-02-08T09:03:31.568Z,28.22
2023-02-08T09:06:01.592Z,27.92
2023-02-08T09:08:31.476Z,27.53
2023-02-08T09:11:10.307Z,28.65
2023-02-08T09:13:40.786Z,29.43
2023-02-08T09:16:13.703Z,28.24
2023-02-08T09:18:44.325Z,28.46
2023-02-08T09:21:16.687Z,28.50
2023-02-08T09:23:47.600Z,29.18
2023-02-08T09:26:22.715Z,28.16
2023-02-08T09:28:52.952Z,28.08
2023-02-08T09:31:28.193Z,27.90
2023-02-08T09:34:01.166Z,28.33
2023-02-08T09:36:34.914Z,28.02
2023-02-08T09:39:09.938Z,28.00
2023-02-08T09:42:02.109Z,28.43
2023-02-08T09:44:44.050Z,26.95
2023-02-08T09:47:23.547Z,27.45
2023-02-08T09:50:01.436Z,26.66
2023-02-08T09:52:39.951Z,26.98
2023-02-08T09:55:24.420Z,25.70
2023-02-08T09:58:01.185Z,26.08
2023-02-08T10:00:38.767Z,26.08
2023-02-08T10:03:21.988Z,25.96
2023-02-08T10:05:52.288Z,26.23
2023-02-08T10:08:26.938Z,26.61
2023-02-08T10:11:27.048Z,26.13
2023-02-08T10:14:21.171Z,26.26
2023-02-08T10:17:05.010Z,25.67
2023-02-08T10:19:59.669Z,25.24
2023-02-08T10:22:44.780Z,24.90
2023-02-08T10:25:36.680Z,25.05
2023-02-08T10:28:29.148Z,23.92
2023-02-08T10:31:14.815Z,23.24
2023-02-08T10:33:57.277Z,23.71
2023-02-08T10:36:33.923Z,24.18
2023-02-08T10:39:06.762Z,23.43
2023-02-08T10:41:40.686Z,22.21
2023-02-08T10:44:25.508Z,21.24
2023-02-08T10:47:12.631Z,20.47
2023-02-08T10:49:53.876Z,20.48
2023-02-08T10:52:23.994Z,20.41
2023-02-08T10:54:54.148Z,18.78
2023-02-08T10:57:30.158Z,19.29
2023-02-08T11:00:07.071Z,19.00
2023-02-08T11:02:46.992Z,19.50
2023-02-08T11:05:21.217Z,19.52
2023-02-08T11:08:08.313Z,20.66
2023-02-08T11:10:41.068Z,20.08
2023-02-08T11:13:21.460Z,19.32
2023-02-08T11:15:55.389Z,19.76
2023-02-08T11:18:33.414Z,19.62
2023-02-08T11:21:10.745Z,21.32
2023-02-08T11:23:48.655Z,20.82
2023-02-08T11:26:23.688Z,19.82
2023-02-08T11:29:03.844Z,19.51
2023-02-08T11:31:36.215Z,19.27
2023-02-08T11:34:11.979Z,17.49
2023-02-08T11:36:50.209Z,18.19
2023-02-08T11:39:25.988Z,17.76
2023-02-08T11:42:02.094Z,16.62
2023-02-08T11:44:36.588Z,16.46
2023-02-08T11:47:12.235Z,16.19
2023-02-08T11:49:47.890Z,15.63
2023-02-08T11:52:25.777Z,15.63
2023-02-08T11:54:57.288Z,15.96
2023-02-08T11:57:29.567Z,15.48
2023-02-08T12:00:22.054Z,16.13
2023-02-08T12:02:53.739Z,15.57
2023-02-08T12:05:42.620Z,16.80
2023-02-08T12:08:26.657Z,16.15
2023-02-08T12:11:10.653Z,16.18
2023-02-08T12:13:55.618Z,16.03
2023-02-08T12:16:49.747Z,16.34
2023-02-08T12:19:52.434Z,15.74
2023-02-08T12:22:29.686Z,16.58
2023-02-08T12:25:22.338Z,16.79
2023-02-08T12:28:03.929Z,16.20
2023-02-08T12:30:40.009Z,16.28
2023-02-08T12:33:36.104Z,17.11
2023-02-08T12:36:30.525Z,16.37
2023-02-08T12:39:27.939Z,20.57
2023-02-08T12:42:21.711Z,19.31
2023-02-08T12:45:09.899Z,16.84
2023-02-08T12:48:04.364Z,15.77
2023-02-08T12:50:48.793Z,16.73
2023-02-08T12:53:25.884Z,16.71
2023-02-08T12:56:03.948Z,18.63
2023-02-08T12:58:42.357Z,18.26
2023-02-08T13:01:18.650Z,18.19
2023-02-08T13:03:56.876Z,18.00
2023-02-08T13:06:32.026Z,18.08
2023-02-08T13:09:10.893Z,17.86
2023-02-08T13:11:52.905Z,18.53
2023-02-08T13:14:34.695Z,19.09
2023-02-08T13:17:15.725Z,18.89
2023-02-08T13:20:00.194Z,18.19
2023-02-08T13:22:37.434Z,18.57
2023-02-08T13:25:17.425Z,17.90
2023-02-08T13:27:50.953Z,17.55
2023-02-08T13:30:24.288Z,18.46
2023-02-08T13:32:56.953Z,19.16
2023-02-08T13:35:31.565Z,19.55
2023-02-08T13:38:07.125Z,18.84
2023-02-08T13:40:39.320Z,18.92
2023-02-08T13:43:35.713Z,18.93
2023-02-08T13:46:08.189Z,18.26
2023-02-08T13:48:50.867Z,18.45
2023-02-08T13:51:59.836Z,17.14
2023-02-08T13:54:30.009Z,16.62
2023-02-08T13:57:00.855Z,17.34
2023-02-08T13:59:41.936Z,17.29
2023-02-08T14:02:29.610Z,17.30
2023-02-08T14:05:29.414Z,16.49
2023-02-08T14:08:02.640Z,17.13
2023-02-08T14:10:39.759Z,16.57
2023-02-08T14:13:27.491Z,16.10
2023-02-08T14:16:27.316Z,16.26
2023-02-08T14:19:03.181Z,16.26
2023-02-08T14:21:39.227Z,15.51
2023-02-08T14:24:34.201Z,16.22
2023-02-08T14:27:12.696Z,15.93
2023-02-08T14:29:42.811Z,15.74
2023-02-08T14:32:26.657Z,16.17
2023-02-08T14:35:09.426Z,16.60
2023-02-08T14:37:40.038Z,16.68
2023-02-08T14:40:35.221Z,17.34
2023-02-08T14:43:07.611Z,17.18
2023-02-08T14:45:39.769Z,17.25
2023-02-08T14:48:29.648Z,17.72
2023-02-08T14:51:29.471Z,16.95
2023-02-08T14:54:06.617Z,17.17
2023-02-08T14:56:46.754Z,16.50
2023-02-08T14:59:20.977Z,16.24
2023-02-08T15:01:54.809Z,16.11
2023-02-08T15:04:25.370Z,16.45
2023-02-08T15:07:23.490Z,15.96
2023-02-08T15:09:53.604Z,15.71
2023-02-08T15:12:30.736Z,15.86
2023-02-08T15:15:03.780Z,15.69
2023-02-08T15:17:39.463Z,15.81
2023-02-08T15:20:20.210Z,14.97
2023-02-08T15:23:02.725Z,16.05
2023-02-08T15:25:35.547Z,15.82
2023-02-08T15:28:20.040Z,14.98
2023-02-08T15:30:58.479Z,15.17
2023-02-08T15:33:29.158Z,15.19
2023-02-08T15:36:03.991Z,14.99
2023-02-08T15:38:41.300Z,14.40
2023-02-08T15:41:14.163Z,14.46
2023-02-08T15:43:45.705Z,14.90
2023-02-08T15:46:24.839Z,14.41
2023-02-08T15:48:57.522Z,14.98
2023-02-08T15:51:29.207Z,15.22
2023-02-08T15:54:03.180Z,15.23
2023-02-08T15:56:42.357Z,14.32
2023-02-08T15:59:26.230Z,14.57
2023-02-08T16:01:58.360Z,13.93
2023-02-08T16:04:29.096Z,14.37
2023-02-08T16:07:01.400Z,13.63
2023-02-08T16:09:34.204Z,13.36
2023-02-08T16:12:04.744Z,13.22
2023-02-08T16:14:50.805Z,13.56
2023-02-08T16:17:40.971Z,13.66
2023-02-08T16:20:31.956Z,13.47
2023-02-08T16:23:05.691Z,13.14
2023-02-08T16:25:49.302Z,13.15
2023-02-08T16:28:29.865Z,13.99
2023-02-08T16:31:03.873Z,12.93
2023-02-08T16:33:38.067Z,12.79
2023-02-08T16:36:08.679Z,11.99
2023-02-08T16:38:38.773Z,12.42
2023-02-08T16:41:15.792Z,12.37
2023-02-08T16:43:47.991Z,12.45
2023-02-08T16:46:25.471Z,12.16
2023-02-08T16:48:58.220Z,12.85
2023-02-08T16:51:30.933Z,12.62
2023-02-08T16:54:07.703Z,12.44
2023-02-08T16:56:42.625Z,12.83
2023-02-08T16:59:15.133Z,13.14
2023-02-08T17:01:48.537Z,13.29
2023-02-08T17:04:19.029Z,13.15
2023-02-08T17:06:49.759Z,13.27
2023-02-08T17:09:19.849Z,13.06
2023-02-08T17:11:52.542Z,13.18
2023-02-08T17:14:22.788Z,14.52
2023-02-08T17:16:53.002Z,14.31
2023-02-08T17:19:23.053Z,12.85
2023-02-08T17:21:53.009Z,13.41
2023-02-08T17:24:23.829Z,13.87
2023-02-08T17:26:57.434Z,13.99
2023-02-08T17:29:27.429Z,14.23
2023-02-08T17:31:57.401Z,14.21
2023-02-08T17:34:27.795Z,14.37
2023-02-08T17:36:57.798Z,14.67
2023-02-08T17:39:27.860Z,15.29
2023-02-08T17:42:00.524Z,14.62
2023-02-08T17:44:30.543Z,14.32
2023-02-08T17:47:00.524Z,14.63
2023-02-08T17:49:32.000Z,15.52
2023-02-08T17:52:02.089Z,14.27
2023-02-08T17:54:32.151Z,14.63
2023-02-08T17:57:04.933Z,14.97
2023-02-08T17:59:35.635Z,15.01
2023-02-08T18:02:08.821Z,14.71
2023-02-08T18:04:39.348Z,14.90
2023-02-08T18:07:09.406Z,15.07
2023-02-08T18:09:39.469Z,14.99
2023-02-08T18:12:12.301Z,15.40
2023-02-08T18:14:42.688Z,15.78
2023-02-08T18:17:12.873Z,15.83
2023-02-08T18:19:43.144Z,15.67
2023-02-08T18:22:13.355Z,15.84
2023-02-08T18:24:43.389Z,16.31
2023-02-08T18:27:16.345Z,16.12
2023-02-08T18:29:46.395Z,16.20
2023-02-08T18:32:16.455Z,15.64
2023-02-08T18:34:46.586Z,16.04
2023-02-08T18:37:16.910Z,16.99
2023-02-08T18:39:46.956Z,16.58
2023-02-08T18:42:19.644Z,17.39
2023-02-08T18:44:49.609Z,17.50
2023-02-08T18:47:19.755Z,18.13
2023-02-08T18:49:52.565Z,17.86
2023-02-08T18:52:23.752Z,18.57
2023-02-08T18:54:54.061Z,18.75
2023-02-08T18:57:26.674Z,18.88
2023-02-08T18:59:56.734Z,19.20
2023-02-08T19:02:27.556Z,19.29
2023-02-08T19:04:57.567Z,19.62
2023-02-08T19:07:27.528Z,19.48
2023-02-08T19:09:57.522Z,19.76
2023-02-08T19:12:30.243Z,20.05
2023-02-08T19:15:00.436Z,20.54
2023-02-08T19:17:31.267Z,21.19
2023-02-08T19:20:01.291Z,21.32
2023-02-08T19:22:31.334Z,21.70
2023-02-08T19:25:03.086Z,21.04
2023-02-08T19:27:37.100Z,22.15
2023-02-08T19:30:08.051Z,22.04
2023-02-08T19:32:38.060Z,21.56
2023-02-08T19:35:08.237Z,21.85
2023-02-08T19:37:41.142Z,22.19
2023-02-08T19:40:13.466Z,21.64
2023-02-08T19:42:46.697Z,22.00
2023-02-08T19:45:17.414Z,23.45
2023-02-08T19:47:51.418Z,22.86
2023-02-08T19:50:22.243Z,23.03
2023-02-08T19:52:52.434Z,22.91
2023-02-08T19:55:23.414Z,22.22
2023-02-08T19:57:56.148Z,22.46
2023-02-08T20:00:26.500Z,22.51
2023-02-08T20:02:56.810Z,22.72
2023-02-08T20:05:26.861Z,22.99
2023-02-08T20:07:56.844Z,23.07
2023-02-08T20:10:26.865Z,23.52
2023-02-08T20:12:59.778Z,23.32
2023-02-08T20:15:31.358Z,23.25
2023-02-08T20:18:02.222Z,23.35
2023-02-08T20:20:33.143Z,23.38
2023-02-08T20:23:14.176Z,23.54
2023-02-08T20:25:47.644Z,23.76
2023-02-08T20:28:20.777Z,23.99
2023-02-08T20:30:52.114Z,24.35
2023-02-08T20:33:24.884Z,25.14
2023-02-08T20:35:55.633Z,26.50
2023-02-08T20:38:27.031Z,25.49
2023-02-08T20:41:05.149Z,25.53
2023-02-08T20:43:39.057Z,25.45
2023-02-08T20:46:10.892Z,24.88
2023-02-08T20:48:42.600Z,25.12
2023-02-08T20:51:14.784Z,26.73
2023-02-08T20:53:47.666Z,27.10
2023-02-08T20:56:20.420Z,26.14
2023-02-08T20:58:55.354Z,25.86
2023-02-08T21:01:28.069Z,25.71
2023-02-08T21:04:09.854Z,26.17
2023-02-08T21:06:49.254Z,27.09
2023-02-08T21:09:23.257Z,28.55
2023-02-08T21:11:55.300Z,27.56
2023-02-08T21:14:28.689Z,27.73
2023-02-08T21:17:01.116Z,26.28
2023-02-08T21:19:33.596Z,27.27
2023-02-08T21:22:06.840Z,27.50
2023-02-08T21:24:39.137Z,27.67
2023-02-08T21:27:10.390Z,27.92
2023-02-08T21:29:53.969Z,27.99
2023-02-08T21:32:28.766Z,28.70
2023-02-08T21:35:03.969Z,27.67
2023-02-08T21:37:36.638Z,28.53
2023-02-08T21:40:07.990Z,28.82
2023-02-08T21:42:46.151Z,29.46
2023-02-08T21:45:20.848Z,29.71
2023-02-08T21:48:02.044Z,29.39
2023-02-08T21:51:03.728Z,30.50
2023-02-08T21:53:54.986Z,30.10
2023-02-08T21:56:28.012Z,30.59
2023-02-08T21:58:58.483Z,33.62
2023-02-08T22:01:36.719Z,29.88
2023-02-08T22:04:11.839Z,30.09
2023-02-08T22:06:52.399Z,30.78
2023-02-08T22:09:24.285Z,30.49
2023-02-08T22:11:56.586Z,31.37
2023-02-08T22:14:27.002Z,30.50
2023-02-08T22:17:00.009Z,30.02
2023-02-08T22:19:30.473Z,29.87
2023-02-08T22:22:00.581Z,30.63
2023-02-08T22:24:30.984Z,29.74
2023-02-08T22:27:01.550Z,30.55
2023-02-08T22:29:32.326Z,30.67
2023-02-08T22:32:05.690Z,30.32
2023-02-08T22:34:39.532Z,30.31
2023-02-08T22:37:15.088Z,30.34
2023-02-08T22:39:49.940Z,30.89
2023-02-08T22:42:20.289Z,29.84
2023-02-08T22:44:52.344Z,30.26
2023-02-08T22:47:27.285Z,30.90
2023-02-08T22:50:01.585Z,31.12
2023-02-08T22:52:34.387Z,30.34
2023-02-08T22:55:05.999Z,30.05
2023-02-08T22:57:38.810Z,30.36
2023-02-08T23:00:10.790Z,30.52
2023-02-08T23:02:43.820Z,29.33
2023-02-08T23:05:14.684Z,29.97
2023-02-08T23:07:44.655Z,30.17
2023-02-08T23:10:14.896Z,30.24
2023-02-08T23:12:44.844Z,30.80
2023-02-08T23:15:15.132Z,30.36
2023-02-08T23:17:47.756Z,30.03
2023-02-08T23:20:17.690Z,30.83
2023-02-08T23:22:47.648Z,30.41
2023-02-08T23:25:18.242Z,30.45
2023-02-08T23:27:48.733Z,30.67
2023-02-08T23:30:19.410Z,30.33
2023-02-08T23:32:51.890Z,29.37
2023-02-08T23:35:21.782Z,30.64
2023-02-08T23:37:51.697Z,29.78
2023-02-08T23:40:21.740Z,29.56
2023-02-08T23:42:51.688Z,30.10
2023-02-08T23:45:22.831Z,29.93
2023-02-08T23:47:55.398Z,29.32
2023-02-08T23:50:25.331Z,28.95
2023-02-08T23:52:56.599Z,30.14
2023-02-08T23:55:26.620Z,29.34
2023-02-08T23:57:56.574Z,29.61
